Huvudsida
METAR-TAF:

METAR-TAF

Flygplatser :

Vereeniging, Sydafrika

latitud: 26-34-29S, longitud: 027-57-45E, höjd: 1483 m

Aktuellt väderrapport

Denna rapport gjordes för 51 minuter sedan, klockan 12:00 UTC
Vind 9 kt från sydväst i byarna ända upp till 44 kt
Temperatur 24°C
Fuktighet 11%
Tryck 1022 hPa

METAR: FAVV 191200Z AUTO 22009G44KT //// // ////// 24/M08 Q1022

Tid: 14:51 (12:51 UTC)


TAF: saknas

Aktuella väderrapporter och prognoser från 4000 flygplatser (METAR- och TAF-rapporter).

De tillgängliga stationerna syns som gula och röda prickar på kartan.

För musen över prickarna för att se namnen på stationerna.

Klicka sedan för att få väderrapporter och prognoser.

För att ändra kartan: Klicka på de gröna knapparna med ett svart kors på för att zooma in; den gröna knappen med ett streck på för att zooma ut; eller på de gröna pilarna för angränsande kartor.


METAR-TAF: